Sparks, Texas
Current Conditions -  °F | °C
As of 10:58 PM on Saturday 20 Dec 2014 (Local Time) from KGRK Reporting Station
Haze Haze  
Wind Chill: 44°   Ceiling: 600
Heat Index: 47°   Visibility: 6mi
Dew Point: 46°   Wind: 6mph
Humidity: 96%   Direction: 150°SSE
Pressure: 30.17"   Gusts: NA
Location:  30.8644°N, 97.3623°W
Report Text: KGRK 210458Z AUTO 15005KT 6SM BR BKN006 OVC022 08/08 A3017 RMK AO2 CIG 006V022 BKN V SCT SLP219 T00840078
Loading
Personal Weather Stations






























Interactive Weather Map New forecast layout! Learn more

10-Day Weather Forecast

Advertisements
Track Severe Weather on mobile